Time;durP1;ratioP1;P1;durP2;ratioP2;P2;SDS_P1;SDS_P2;PMS_P1;PMS_P2;Temp;Humidity;BMP_temperature;BMP_pressure;BME280_temperature;BME280_humidity;BME280_pressure;Samples;Min_cycle;Max_cycle;Signal;HPM_P1;HPM_P2
2022/05/06 00:01:46;;;;;;;38.88;25.55;;;13.30;80.00;;;;;;5053307;28;20033;-79
2022/05/06 00:04:14;;;;;;;41.05;27.45;;;13.30;80.90;;;;;;5036643;28;20493;-80
2022/05/06 00:06:39;;;;;;;41.55;27.17;;;13.20;80.40;;;;;;5054702;28;20112;-80
2022/05/06 00:09:05;;;;;;;45.38;26.38;;;13.30;81.30;;;;;;5054547;28;20052;-80
2022/05/06 00:11:31;;;;;;;44.40;27.08;;;13.20;80.80;;;;;;5054428;28;20531;-80
2022/05/06 00:13:57;;;;;;;41.75;27.75;;;13.20;80.90;;;;;;5053296;28;20041;-81
2022/05/06 00:16:24;;;;;;;41.85;27.17;;;13.20;81.00;;;;;;5054388;28;20028;-81
2022/05/06 00:18:51;;;;;;;43.42;28.30;;;13.10;81.20;;;;;;5054289;28;20481;-81
2022/05/06 00:21:17;;;;;;;47.40;28.73;;;13.10;81.50;;;;;;5054192;28;20048;-81
2022/05/06 00:23:43;;;;;;;44.65;29.00;;;13.00;81.60;;;;;;5054214;28;20481;-80
2022/05/06 00:26:09;;;;;;;40.25;26.65;;;13.00;81.80;;;;;;5036256;28;20377;-80
2022/05/06 00:28:36;;;;;;;41.60;26.85;;;12.90;81.90;;;;;;5052994;28;20025;-81
2022/05/06 00:31:02;;;;;;;45.22;28.10;;;12.90;82.00;;;;;;5036305;28;20032;-80
2022/05/06 00:33:28;;;;;;;42.40;26.75;;;12.80;82.00;;;;;;5052706;28;20064;-80
2022/05/06 00:35:55;;;;;;;41.88;27.05;;;12.80;82.20;;;;;;5053901;28;20025;-80
2022/05/06 00:38:21;;;;;;;43.92;28.10;;;12.80;82.40;;;;;;5036044;28;20532;-80
2022/05/06 00:40:47;;;;;;;45.65;27.83;;;12.70;82.60;;;;;;5053860;28;20159;-79
2022/05/06 00:43:12;;;;;;;45.92;28.20;;;12.70;82.80;;;;;;5052569;28;20104;-79
2022/05/06 00:45:54;;;;;;;43.60;27.58;;;12.70;83.10;;;;;;5053807;28;20401;-80
2022/05/06 00:48:25;;;;;;;46.38;28.23;;;12.70;83.50;;;;;;5053780;28;20032;-79
2022/05/06 00:50:52;;;;;;;45.75;28.80;;;12.60;83.70;;;;;;5053903;28;20028;-79
2022/05/06 00:53:18;;;;;;;45.55;27.48;;;12.60;83.90;;;;;;5035952;28;20025;-80
2022/05/06 00:55:44;;;;;;;43.63;27.00;;;12.60;84.00;;;;;;5052522;28;20366;-80
2022/05/06 00:58:10;;;;;;;45.92;28.05;;;12.60;84.20;;;;;;5053890;28;20028;-81
2022/05/06 01:00:36;;;;;;;46.30;27.25;;;12.50;84.30;;;;;;5053640;28;20025;-74
2022/05/06 01:03:03;;;;;;;43.97;28.73;;;12.50;84.50;;;;;;5035834;28;20048;-75
2022/05/06 01:05:31;;;;;;;46.88;28.88;;;12.40;84.60;;;;;;5035526;28;20397;-74
2022/05/06 01:07:58;;;;;;;49.65;29.63;;;12.40;84.90;;;;;;5035567;28;20078;-74
2022/05/06 01:10:23;;;;;;;51.97;30.05;;;12.40;85.00;;;;;;5053382;28;20052;-74
2022/05/06 01:12:50;;;;;;;48.10;31.15;;;12.30;85.30;;;;;;5052467;28;20064;-74
2022/05/06 01:15:24;;;;;;;54.30;31.45;;;12.40;85.50;;;;;;5035453;28;20040;-74
2022/05/06 01:17:51;;;;;;;46.83;29.20;;;12.30;85.70;;;;;;5053429;28;20021;-74
2022/05/06 01:20:18;;;;;;;48.95;30.33;;;12.30;85.80;;;;;;5053340;28;20057;-74
2022/05/06 01:22:56;;;;;;;52.00;30.30;;;12.30;85.90;;;;;;5035503;28;20464;-74
2022/05/06 01:25:22;;;;;;;46.50;29.58;;;12.30;86.10;;;;;;5052547;28;20488;-74
2022/05/06 01:27:56;;;;;;;47.53;29.98;;;12.20;86.20;;;;;;5053221;28;20032;-74
2022/05/06 01:30:38;;;;;;;48.80;31.27;;;12.30;86.40;;;;;;5053316;28;20017;-74
2022/05/06 01:33:09;;;;;;;49.10;30.67;;;12.10;86.40;;;;;;5053269;28;20082;-74
2022/05/06 01:35:42;;;;;;;50.03;30.70;;;12.20;86.70;;;;;;5053234;28;20108;-74
2022/05/06 01:38:10;;;;;;;50.13;31.33;;;12.10;87.00;;;;;;5035508;28;20028;-74
2022/05/06 01:40:46;;;;;;;47.08;32.10;;;12.00;87.20;;;;;;5053345;28;20470;-74
2022/05/06 01:43:15;;;;;;;52.40;32.92;;;12.00;87.50;;;;;;5052994;28;20540;-74
2022/05/06 01:45:43;;;;;;;51.10;32.67;;;12.00;87.70;;;;;;5036431;28;20021;-74
2022/05/06 01:48:09;;;;;;;52.08;32.88;;;12.00;88.10;;;;;;5057246;28;20079;-74
2022/05/06 01:50:39;;;;;;;57.73;34.17;;;12.00;88.30;;;;;;5039434;28;20440;-75
2022/05/06 01:53:07;;;;;;;60.13;33.87;;;11.90;88.60;;;;;;5039392;28;20470;-74
2022/05/06 01:55:33;;;;;;;66.95;35.80;;;11.80;89.10;;;;;;5039074;28;20032;-75
2022/05/06 01:57:59;;;;;;;63.60;33.97;;;11.80;89.60;;;;;;5039530;28;20029;-74
2022/05/06 02:00:24;;;;;;;61.20;34.42;;;11.70;90.00;;;;;;5038990;28;20066;-74
2022/05/06 02:02:50;;;;;;;62.67;35.90;;;11.70;90.10;;;;;;5056886;28;20063;-74
2022/05/06 02:05:19;;;;;;;64.40;35.08;;;11.70;90.20;;;;;;5055607;28;20109;-74
2022/05/06 02:07:50;;;;;;;61.78;36.33;;;11.60;90.30;;;;;;5040056;28;20025;-74
2022/05/06 02:10:17;;;;;;;59.35;33.88;;;11.60;90.60;;;;;;5038983;28;20431;-74
2022/05/06 02:12:45;;;;;;;63.53;37.03;;;11.60;90.70;;;;;;5038759;28;20108;-74
2022/05/06 02:15:11;;;;;;;62.85;34.80;;;11.70;90.90;;;;;;5038831;28;20031;-74
2022/05/06 02:17:38;;;;;;;60.23;35.03;;;11.70;91.10;;;;;;5039065;28;20120;-74
2022/05/06 02:20:05;;;;;;;58.15;34.45;;;11.60;91.40;;;;;;5056552;28;20532;-75
2022/05/06 02:22:31;;;;;;;63.37;35.23;;;11.60;91.30;;;;;;5055507;28;20025;-75
2022/05/06 02:24:57;;;;;;;69.60;35.80;;;11.80;91.60;;;;;;5056640;28;20029;-74
2022/05/06 02:27:23;;;;;;;89.27;32.90;;;11.60;91.70;;;;;;5038484;28;20033;-75
2022/05/06 02:35:16;;;;;;;70.03;30.75;;;11.50;92.30;;;;;;5055662;28;20120;-75
2022/05/06 02:37:42;;;;;;;61.67;27.73;;;11.50;92.60;;;;;;5055154;28;20093;-74
2022/05/06 02:40:09;;;;;;;73.53;31.70;;;11.40;92.70;;;;;;5056038;28;20057;-75
2022/05/06 02:42:36;;;;;;;74.37;31.63;;;11.40;92.80;;;;;;5038150;28;20393;-75
2022/05/06 02:45:02;;;;;;;72.10;28.93;;;11.30;92.70;;;;;;5038729;28;20029;-75
2022/05/06 02:47:27;;;;;;;58.95;28.75;;;11.30;92.90;;;;;;5038120;28;20048;-75
2022/05/06 02:49:53;;;;;;;70.53;29.37;;;11.30;92.90;;;;;;5037974;28;20051;-75
2022/05/06 02:52:19;;;;;;;48.80;28.00;;;11.30;93.00;;;;;;5055994;28;20079;-75
2022/05/06 02:54:45;;;;;;;68.47;29.37;;;11.20;93.00;;;;;;5037953;28;20025;-75
2022/05/06 02:57:11;;;;;;;76.65;29.05;;;11.20;93.20;;;;;;5054656;28;20404;-75
2022/05/06 02:59:39;;;;;;;75.17;27.80;;;11.20;93.50;;;;;;5055888;28;20428;-75
2022/05/06 03:02:05;;;;;;;60.90;29.97;;;11.20;93.70;;;;;;5037734;28;20500;-74
2022/05/06 03:04:31;;;;;;;54.20;28.10;;;11.20;93.60;;;;;;5037707;28;20045;-75
2022/05/06 03:06:57;;;;;;;49.57;29.07;;;11.20;93.70;;;;;;5037752;28;20021;-75
2022/05/06 03:09:23;;;;;;;43.83;27.30;;;11.10;93.70;;;;;;5054360;28;20025;-75
2022/05/06 03:11:49;;;;;;;54.13;27.77;;;11.10;93.80;;;;;;5037673;28;20028;-74
2022/05/06 03:14:14;;;;;;;46.13;27.83;;;11.00;93.90;;;;;;5054241;28;20024;-75
2022/05/06 03:16:40;;;;;;;52.33;27.03;;;11.00;93.80;;;;;;5037495;28;20035;-75
2022/05/06 03:19:06;;;;;;;44.70;26.43;;;11.00;93.80;;;;;;5021411;28;20028;-75
2022/05/06 03:21:32;;;;;;;42.47;25.20;;;11.00;93.90;;;;;;5055555;28;20110;-75
2022/05/06 03:23:59;;;;;;;46.67;26.67;;;10.90;93.90;;;;;;5037878;28;20017;-74
2022/05/06 03:26:25;;;;;;;58.27;26.83;;;10.90;94.00;;;;;;5055342;28;20021;-75
2022/05/06 03:28:52;;;;;;;65.47;28.20;;;10.90;94.10;;;;;;5055253;28;20051;-75
2022/05/06 03:31:18;;;;;;;61.67;29.53;;;10.90;94.10;;;;;;5037329;28;20453;-75
2022/05/06 03:33:45;;;;;;;52.63;28.90;;;10.80;94.10;;;;;;5020666;28;20036;-75
2022/05/06 03:36:11;;;;;;;45.60;28.27;;;10.80;94.20;;;;;;5037030;28;20477;-75
2022/05/06 03:38:37;;;;;;;60.50;28.90;;;10.80;94.30;;;;;;5054928;28;20082;-75
2022/05/06 03:41:02;;;;;;;53.60;29.57;;;10.80;94.40;;;;;;5055101;28;20025;-75
2022/05/06 03:43:28;;;;;;;44.53;28.43;;;10.70;94.40;;;;;;5054827;28;20052;-75
2022/05/06 03:45:54;;;;;;;49.20;28.03;;;10.80;94.90;;;;;;5055010;28;20025;-76
2022/05/06 03:48:25;;;;;;;63.40;27.53;;;10.70;94.50;;;;;;5037000;28;20025;-75
2022/05/06 03:53:38;;;;;;;86.97;27.57;;;10.70;94.60;;;;;;5055094;28;20508;-75
2022/05/06 03:56:05;;;;;;;82.70;27.87;;;10.70;94.70;;;;;;5055404;28;20024;-75
2022/05/06 03:58:32;;;;;;;51.10;24.93;;;10.70;94.80;;;;;;5050886;28;20477;-75
2022/05/06 04:00:58;;;;;;;46.53;24.43;;;10.60;94.70;;;;;;5036837;28;20037;-75
2022/05/06 04:03:24;;;;;;;52.20;28.20;;;10.60;94.70;;;;;;5036447;28;20037;-74
2022/05/06 04:05:49;;;;;;;37.23;26.53;;;10.60;94.80;;;;;;5020506;28;20159;-75
2022/05/06 04:08:15;;;;;;;57.77;25.43;;;10.60;94.90;;;;;;5054824;28;20031;-75
2022/05/06 04:10:40;;;;;;;108.53;27.13;;;10.60;94.90;;;;;;5036942;28;20389;-75
2022/05/06 04:13:06;;;;;;;42.70;25.37;;;10.50;94.90;;;;;;5055053;28;20033;-75
2022/05/06 04:15:32;;;;;;;49.53;26.70;;;10.50;95.00;;;;;;5053232;28;20025;-74
2022/05/06 04:17:59;;;;;;;44.27;25.87;;;10.50;95.00;;;;;;5054503;28;20412;-75
2022/05/06 04:25:53;;;;;;;56.95;25.80;;;10.50;95.20;;;;;;5054490;28;20040;-74
2022/05/06 04:28:19;;;;;;;58.80;24.47;;;10.50;95.20;;;;;;5052845;28;20021;-75
2022/05/06 04:30:44;;;;;;;69.50;25.37;;;10.50;95.20;;;;;;5053116;28;20434;-75
2022/05/06 04:33:10;;;;;;;78.17;24.00;;;10.50;95.30;;;;;;5054139;28;20112;-75
2022/05/06 04:35:36;;;;;;;70.70;25.20;;;10.60;95.30;;;;;;5052734;28;20107;-75
2022/05/06 04:38:01;;;;;;;70.50;24.37;;;10.50;95.40;;;;;;5053917;28;20492;-75
2022/05/06 04:40:27;;;;;;;51.47;23.37;;;10.40;95.50;;;;;;5036449;28;20017;-75
2022/05/06 04:42:53;;;;;;;44.80;23.57;;;10.40;95.40;;;;;;5036119;28;20052;-75
2022/05/06 04:45:18;;;;;;;62.20;23.03;;;10.40;95.50;;;;;;5054110;28;20033;-75
2022/05/06 04:47:44;;;;;;;40.23;22.77;;;10.40;95.50;;;;;;5052753;28;20071;-74
2022/05/06 04:50:10;;;;;;;90.73;23.00;;;10.40;95.60;;;;;;5054435;28;20021;-74
2022/05/06 04:52:35;;;;;;;102.37;22.17;;;10.40;95.70;;;;;;5053688;28;20033;-75
2022/05/06 04:55:01;;;;;;;73.93;20.13;;;10.40;95.70;;;;;;5036354;28;20033;-74
2022/05/06 04:57:27;;;;;;;74.63;21.03;;;10.30;95.70;;;;;;5062449;28;20048;-75
2022/05/06 04:59:53;;;;;;;85.57;21.83;;;10.30;95.70;;;;;;5073504;28;20082;-75
2022/05/06 05:02:18;;;;;;;58.30;19.23;;;10.30;95.70;;;;;;5030221;28;20111;-75
2022/05/06 05:04:44;;;;;;;53.47;20.80;;;10.30;95.70;;;;;;5021789;28;20069;-75
2022/05/06 05:07:11;;;;;;;46.67;22.33;;;10.30;95.80;;;;;;5059837;28;20476;-75
2022/05/06 05:09:37;;;;;;;46.13;20.20;;;10.30;95.90;;;;;;5060549;28;20508;-75
2022/05/06 05:12:04;;;;;;;38.83;20.37;;;10.30;95.90;;;;;;5052662;28;20415;-75
2022/05/06 05:14:30;;;;;;;44.27;19.30;;;10.30;95.90;;;;;;5045532;28;20123;-75
2022/05/06 05:16:55;;;;;;;45.40;22.87;;;10.30;96.00;;;;;;5073258;28;20060;-74
2022/05/06 05:19:21;;;;;;;58.23;22.87;;;10.30;96.20;;;;;;5034826;28;20036;-76
2022/05/06 05:21:49;;;;;;;39.33;21.10;;;10.30;96.20;;;;;;5051121;28;20032;-74
2022/05/06 05:24:15;;;;;;;40.53;20.53;;;10.20;96.10;;;;;;5071951;28;20072;-75
2022/05/06 05:26:40;;;;;;;36.73;21.00;;;10.20;96.20;;;;;;5047402;28;20032;-75
2022/05/06 05:29:06;;;;;;;39.63;21.90;;;10.20;96.30;;;;;;5057153;28;20071;-75
2022/05/06 05:31:32;;;;;;;43.53;23.07;;;10.20;96.50;;;;;;5059568;28;20448;-76
2022/05/06 05:33:58;;;;;;;44.93;23.07;;;10.30;96.50;;;;;;5072464;28;20094;-76
2022/05/06 05:36:24;;;;;;;41.17;23.07;;;10.30;96.50;;;;;;5072629;28;20075;-75
2022/05/06 05:38:49;;;;;;;54.20;23.57;;;10.30;96.50;;;;;;5038458;28;20052;-75
2022/05/06 05:41:15;;;;;;;53.53;24.30;;;10.40;96.60;;;;;;5078946;28;20035;-75
2022/05/06 05:49:08;;;;;;;63.03;23.27;;;10.50;96.90;;;;;;5074704;28;20047;-76
2022/05/06 05:51:34;;;;;;;50.50;23.23;;;10.60;97.00;;;;;;5086849;28;20016;-76
2022/05/06 05:54:00;;;;;;;57.23;25.23;;;10.70;97.00;;;;;;5060218;28;20042;-76
2022/05/06 05:56:25;;;;;;;68.83;26.53;;;10.80;97.00;;;;;;5086698;28;20060;-77
2022/05/06 05:58:51;;;;;;;67.37;25.03;;;10.80;97.20;;;;;;5066077;28;20052;-76
2022/05/06 06:01:18;;;;;;;56.50;24.77;;;10.90;97.20;;;;;;5042035;28;20536;-76
2022/05/06 06:03:43;;;;;;;186.35;26.80;;;10.90;97.20;;;;;;5074419;28;20083;-76
2022/05/06 06:06:10;;;;;;;87.60;24.13;;;11.00;97.20;;;;;;5038923;28;20377;-76
2022/05/06 06:08:36;;;;;;;77.65;25.38;;;11.00;97.30;;;;;;5055201;28;20032;-76
2022/05/06 06:11:05;;;;;;;92.90;25.93;;;11.10;97.30;;;;;;5054973;28;20028;-76
2022/05/06 06:13:31;;;;;;;54.77;27.50;;;11.00;97.40;;;;;;5055286;28;20020;-76
2022/05/06 06:15:57;;;;;;;64.68;23.38;;;11.10;97.50;;;;;;5055205;28;20028;-76
2022/05/06 06:18:26;;;;;;;49.37;25.83;;;11.20;97.60;;;;;;5021769;28;20070;-76
2022/05/06 06:20:53;;;;;;;56.42;24.05;;;11.30;97.50;;;;;;5073233;28;20492;-76
2022/05/06 06:23:20;;;;;;;45.22;22.13;;;11.30;97.50;;;;;;5055084;28;20043;-76
2022/05/06 06:25:45;;;;;;;100.93;22.38;;;11.40;97.60;;;;;;5054893;28;20105;-76
2022/05/06 06:28:11;;;;;;;84.07;21.25;;;11.40;97.50;;;;;;5072433;28;20071;-76
2022/05/06 06:30:37;;;;;;;83.23;21.17;;;11.40;97.50;;;;;;5038420;28;20107;-76
2022/05/06 06:33:03;;;;;;;52.58;20.20;;;11.30;97.50;;;;;;5058269;28;20029;-76
2022/05/06 06:35:28;;;;;;;66.22;19.98;;;11.40;97.50;;;;;;5058849;28;20039;-76
2022/05/06 06:37:55;;;;;;;123.30;21.67;;;11.40;97.80;;;;;;5041972;28;20591;-76
2022/05/06 06:40:21;;;;;;;105.40;22.60;;;11.40;97.60;;;;;;5058592;28;20074;-77
2022/05/06 06:42:47;;;;;;;73.47;20.95;;;11.40;97.50;;;;;;5041776;28;20024;-76
2022/05/06 06:45:13;;;;;;;47.97;19.08;;;11.40;97.50;;;;;;5058435;28;20039;-76
2022/05/06 06:47:39;;;;;;;46.15;18.63;;;11.40;97.50;;;;;;5041763;28;20074;-76
2022/05/06 06:50:06;;;;;;;45.33;20.87;;;11.40;97.50;;;;;;5041262;28;20364;-76
2022/05/06 06:52:31;;;;;;;59.33;19.58;;;11.50;97.60;;;;;;5041225;28;20024;-76
2022/05/06 06:54:57;;;;;;;41.17;19.63;;;11.60;97.60;;;;;;5076185;28;20035;-76
2022/05/06 06:57:23;;;;;;;70.93;20.63;;;11.50;97.60;;;;;;5076029;28;20028;-76
2022/05/06 06:59:49;;;;;;;89.72;20.52;;;11.60;97.70;;;;;;5041848;28;20031;-76
2022/05/06 07:02:14;;;;;;;45.63;20.30;;;11.50;97.60;;;;;;5057707;28;20089;-76
2022/05/06 07:04:40;;;;;;;71.00;19.80;;;11.60;97.60;;;;;;5057906;28;20097;-76
2022/05/06 07:12:34;;;;;;;45.70;20.05;;;11.70;97.70;;;;;;5075693;28;20086;-76
2022/05/06 07:15:01;;;;;;;57.35;21.23;;;11.70;97.70;;;;;;5057422;28;20032;-76
2022/05/06 07:17:27;;;;;;;36.05;20.55;;;11.80;97.70;;;;;;5040938;28;20492;-76
2022/05/06 07:19:52;;;;;;;44.42;18.35;;;11.90;97.80;;;;;;5057822;28;20115;-77
2022/05/06 07:22:18;;;;;;;32.22;19.98;;;11.90;97.80;;;;;;5075345;28;20115;-76
2022/05/06 07:24:44;;;;;;;36.22;19.80;;;12.00;98.00;;;;;;5041069;28;20097;-76
2022/05/06 07:27:09;;;;;;;37.55;20.98;;;12.00;97.80;;;;;;5057327;28;20546;-75
2022/05/06 07:29:35;;;;;;;46.65;20.77;;;12.00;97.70;;;;;;5041070;28;20025;-76
2022/05/06 07:32:01;;;;;;;40.20;20.48;;;12.10;97.70;;;;;;5057392;28;20025;-77
2022/05/06 07:34:26;;;;;;;53.95;21.08;;;12.00;97.60;;;;;;5040651;28;20110;-77
2022/05/06 07:36:52;;;;;;;37.20;18.90;;;12.00;97.60;;;;;;5041310;28;20036;-76
2022/05/06 07:39:18;;;;;;;30.13;19.98;;;12.10;97.60;;;;;;5040575;28;20071;-76
2022/05/06 07:41:44;;;;;;;29.42;20.08;;;12.20;97.60;;;;;;5057908;28;20105;-76
2022/05/06 07:44:10;;;;;;;31.83;20.70;;;12.20;97.60;;;;;;5040056;28;20032;-76
2022/05/06 07:46:36;;;;;;;30.50;18.95;;;12.30;97.50;;;;;;5057385;28;20116;-76
2022/05/06 07:49:03;;;;;;;30.35;20.27;;;12.20;97.50;;;;;;5075490;28;20028;-76
2022/05/06 07:51:29;;;;;;;29.55;18.33;;;12.40;97.50;;;;;;5074921;28;20427;-75
2022/05/06 07:53:56;;;;;;;25.15;17.25;;;12.40;97.60;;;;;;5056919;28;20025;-74
2022/05/06 07:56:26;;;;;;;25.83;16.98;;;12.50;97.50;;;;;;5074847;28;20028;-74
2022/05/06 07:58:52;;;;;;;29.40;18.38;;;12.70;97.50;;;;;;5074723;28;20415;-76
2022/05/06 08:04:32;;;;;;;24.83;15.70;;;12.70;97.30;;;;;;5056960;28;20027;-76
2022/05/06 08:06:51;;;;;;;24.92;16.35;;;12.90;97.10;;;;;;5075206;28;20124;-76
2022/05/06 08:09:17;;;;;;;22.35;16.00;;;13.00;97.00;;;;;;5056707;28;20039;-76
2022/05/06 08:11:42;;;;;;;21.20;15.45;;;13.10;96.90;;;;;;5074415;28;20032;-76
2022/05/06 08:14:08;;;;;;;22.17;15.15;;;13.20;96.80;;;;;;5040012;28;20412;-76
2022/05/06 08:16:34;;;;;;;19.90;14.20;;;13.30;96.70;;;;;;5074656;28;20079;-76
2022/05/06 08:18:59;;;;;;;18.23;12.00;;;13.40;96.50;;;;;;5039779;28;20044;-76
2022/05/06 08:21:25;;;;;;;16.85;12.48;;;13.50;96.30;;;;;;5039940;28;20036;-76
2022/05/06 08:23:52;;;;;;;17.33;13.07;;;13.60;96.10;;;;;;5056680;28;20035;-76
2022/05/06 08:26:18;;;;;;;17.95;12.57;;;13.60;95.90;;;;;;5039959;28;20044;-76
2022/05/06 08:28:44;;;;;;;16.23;11.50;;;13.70;95.80;;;;;;5056547;28;20032;-76
2022/05/06 08:31:10;;;;;;;18.00;12.90;;;13.80;95.80;;;;;;5039872;28;20538;-76
2022/05/06 08:33:35;;;;;;;18.23;12.25;;;13.90;95.50;;;;;;5039623;28;20067;-75
2022/05/06 08:36:01;;;;;;;16.77;11.50;;;14.00;95.50;;;;;;5056455;28;20119;-76
2022/05/06 08:38:26;;;;;;;17.45;12.77;;;14.10;95.30;;;;;;5039503;28;20033;-76
2022/05/06 08:40:53;;;;;;;21.30;13.70;;;14.10;95.00;;;;;;5056484;28;20396;-75
2022/05/06 08:43:19;;;;;;;18.05;13.07;;;14.20;95.10;;;;;;5056090;28;20464;-76
2022/05/06 08:51:15;;;;;;;20.10;14.05;;;14.50;94.70;;;;;;5074053;28;20036;-75
2022/05/06 08:53:41;;;;;;;18.88;12.80;;;14.60;94.50;;;;;;5040033;28;20029;-76
2022/05/06 08:56:07;;;;;;;17.58;12.80;;;14.70;94.50;;;;;;5072916;28;20029;-76
2022/05/06 08:58:40;;;;;;;20.05;12.73;;;14.80;94.40;;;;;;5039157;28;20021;-76
2022/05/06 09:01:11;;;;;;;16.13;11.23;;;15.00;94.40;;;;;;5039906;28;20029;-76
2022/05/06 09:03:38;;;;;;;18.45;12.35;;;15.20;94.20;;;;;;5039208;28;20033;-76
2022/05/06 09:06:04;;;;;;;14.23;9.88;;;15.30;94.30;;;;;;5052192;28;20136;-76
2022/05/06 09:08:43;;;;;;;15.07;10.45;;;15.30;93.70;;;;;;5054121;28;20057;-74
2022/05/06 09:11:09;;;;;;;13.88;9.73;;;15.30;93.30;;;;;;5053622;28;20032;-76
2022/05/06 09:13:58;;;;;;;14.82;10.40;;;15.30;93.10;;;;;;5052231;28;20036;-76
2022/05/06 09:16:41;;;;;;;14.82;10.43;;;15.30;93.00;;;;;;5053695;28;20023;-76
2022/05/06 09:19:16;;;;;;;14.00;8.93;;;15.30;93.00;;;;;;5052180;28;20056;-76
2022/05/06 09:22:11;;;;;;;14.80;10.93;;;15.30;92.80;;;;;;5053195;28;20041;-76
2022/05/06 09:24:38;;;;;;;15.23;10.45;;;15.30;92.80;;;;;;5052329;28;20028;-77
2022/05/06 09:27:08;;;;;;;15.48;10.98;;;15.20;92.60;;;;;;5053217;28;20127;-76
2022/05/06 09:29:39;;;;;;;17.25;10.80;;;15.20;92.50;;;;;;5053270;28;20023;-76
2022/05/06 09:32:23;;;;;;;14.45;10.35;;;15.20;92.50;;;;;;5051958;28;20041;-75
2022/05/06 09:34:48;;;;;;;13.07;8.70;;;15.20;92.60;;;;;;5053255;28;20029;-75
2022/05/06 09:37:33;;;;;;;13.75;9.13;;;15.20;92.60;;;;;;5053383;28;20406;-76
2022/05/06 09:40:12;;;;;;;15.05;9.55;;;15.20;92.50;;;;;;5051822;28;20033;-76
2022/05/06 09:42:43;;;;;;;11.77;8.77;;;15.30;92.50;;;;;;5053214;28;20119;-75
2022/05/06 09:45:13;;;;;;;14.25;9.35;;;15.30;92.50;;;;;;5051845;28;20025;-76
2022/05/06 09:47:40;;;;;;;12.68;9.05;;;15.30;92.40;;;;;;5053372;28;20041;-76
2022/05/06 09:50:07;;;;;;;11.48;7.75;;;15.50;92.60;;;;;;5051785;28;20021;-76
2022/05/06 09:52:34;;;;;;;11.02;8.00;;;15.50;92.30;;;;;;5053404;28;20083;-75
2022/05/06 09:55:00;;;;;;;14.13;9.07;;;15.60;92.10;;;;;;5035411;28;20037;-76
2022/05/06 09:57:27;;;;;;;11.18;7.68;;;15.70;92.20;;;;;;5018926;28;20029;-75
2022/05/06 09:59:52;;;;;;;13.75;8.75;;;15.80;91.80;;;;;;5052121;28;20036;-76
2022/05/06 10:02:18;;;;;;;12.75;7.40;;;15.90;91.60;;;;;;5053015;28;20033;-76
2022/05/06 10:04:47;;;;;;;12.82;8.27;;;16.00;91.40;;;;;;5051542;28;20053;-76
2022/05/06 10:07:15;;;;;;;12.15;8.07;;;16.10;91.30;;;;;;5054560;28;20036;-75
2022/05/06 10:09:54;;;;;;;11.25;7.88;;;16.20;91.10;;;;;;5056694;28;20033;-74
2022/05/06 10:12:21;;;;;;;11.13;7.85;;;16.30;90.90;;;;;;5055561;28;20119;-76
2022/05/06 10:14:48;;;;;;;11.88;7.25;;;16.40;90.70;;;;;;5055621;28;20033;-75
2022/05/06 10:17:49;;;;;;;9.73;7.03;;;16.50;90.20;;;;;;5056715;28;20029;-77
2022/05/06 10:20:33;;;;;;;10.02;6.43;;;16.70;90.00;;;;;;5056718;28;20524;-76
2022/05/06 10:23:00;;;;;;;10.30;7.47;;;17.00;88.70;;;;;;5055430;28;20124;-75
2022/05/06 10:25:44;;;;;;;8.90;6.22;;;17.20;88.20;;;;;;5038645;28;20022;-78
2022/05/06 10:34:12;;;;;;;6.45;4.30;;;18.30;84.30;;;;;;5056725;28;20492;-84
2022/05/06 10:36:49;;;;;;;7.55;4.82;;;18.80;82.80;;;;;;5055380;28;20117;-81
2022/05/06 10:39:21;;;;;;;6.68;4.10;;;19.20;81.60;;;;;;5056344;28;20056;-83
2022/05/06 10:42:05;;;;;;;4.55;3.22;;;19.60;80.60;;;;;;5056324;28;20033;-84
2022/05/06 10:44:38;;;;;;;4.38;2.53;;;20.20;78.60;;;;;;5039255;28;20390;-82
2022/05/06 10:47:41;;;;;;;3.47;2.30;;;20.90;77.30;;;;;;5056214;28;20025;-84
2022/05/06 10:50:15;;;;;;;2.83;2.00;;;21.60;74.60;;;;;;5056016;28;20025;-80
2022/05/06 10:52:41;;;;;;;;;;;22.50;73.10;;;;;;5054684;28;20775;-81
2022/05/06 10:55:10;;;;;;;2.22;1.17;;;23.10;70.60;;;;;;5054936;28;19919;-84
2022/05/06 10:57:46;;;;;;;2.13;1.58;;;23.60;68.10;;;;;;5056194;28;20032;-83
2022/05/06 11:00:13;;;;;;;2.33;1.33;;;24.30;65.10;;;;;;5055926;28;20036;-85
2022/05/06 11:02:40;;;;;;;2.30;1.35;;;24.90;62.90;;;;;;5038179;28;20405;-83
2022/05/06 11:05:16;;;;;;;2.35;1.35;;;25.30;61.80;;;;;;5054557;28;20037;-84
2022/05/06 11:07:44;;;;;;;4.75;1.73;;;25.70;60.10;;;;;;5054510;28;20037;-82
2022/05/06 11:10:11;;;;;;;2.22;1.42;;;26.30;59.30;;;;;;5055717;28;20027;-84
2022/05/06 11:12:40;;;;;;;1.80;0.98;;;26.90;57.80;;;;;;5054393;28;20087;-81
2022/05/06 11:15:08;;;;;;;2.63;0.82;;;27.40;55.70;;;;;;5054658;28;20021;-80
2022/05/06 11:17:35;;;;;;;2.33;1.17;;;27.90;53.90;;;;;;5055147;28;20021;-81
2022/05/06 11:20:03;;;;;;;2.35;0.95;;;28.30;51.90;;;;;;5054152;28;20377;-83
2022/05/06 11:22:33;;;;;;;3.72;1.20;;;28.70;50.60;;;;;;5055823;28;20037;-83
2022/05/06 11:24:59;;;;;;;3.35;1.05;;;29.10;49.10;;;;;;5054612;28;20389;-82
2022/05/06 11:27:25;;;;;;;3.20;1.30;;;29.20;48.10;;;;;;5054233;28;20035;-81
2022/05/06 11:29:58;;;;;;;1.98;1.02;;;29.30;47.40;;;;;;5037750;28;20040;-84
2022/05/06 11:32:27;;;;;;;2.92;1.20;;;29.70;47.20;;;;;;5056022;28;20025;-85
2022/05/06 11:35:06;;;;;;;1.60;0.95;;;30.00;46.40;;;;;;5054203;28;20488;-82
2022/05/06 11:37:34;;;;;;;2.53;1.50;;;30.20;44.90;;;;;;5054316;28;20035;-86
2022/05/06 11:40:18;;;;;;;1.83;1.20;;;30.40;44.20;;;;;;5055696;28;20051;-82
2022/05/06 11:42:45;;;;;;;2.08;1.13;;;30.50;43.50;;;;;;5054146;28;20033;-83
2022/05/06 11:48:11;;;;;;;3.22;1.35;;;30.90;42.90;;;;;;5055596;28;20078;-85
2022/05/06 11:50:39;;;;;;;4.40;1.45;;;31.10;42.00;;;;;;5055091;28;20369;-85
2022/05/06 11:53:09;;;;;;;4.80;1.20;;;31.10;41.80;;;;;;5053873;28;20021;-83
2022/05/06 11:55:43;;;;;;;3.75;1.20;;;31.30;41.60;;;;;;5054889;28;20032;-82
2022/05/06 11:58:12;;;;;;;2.28;1.38;;;31.50;41.10;;;;;;5049462;28;20022;-85
2022/05/06 12:00:38;;;;;;;2.53;1.25;;;31.50;40.70;;;;;;5050814;28;20336;-85
2022/05/06 12:03:06;;;;;;;2.55;1.25;;;31.70;40.80;;;;;;5053473;28;20039;-85
2022/05/06 12:05:38;;;;;;;2.47;1.20;;;31.80;40.00;;;;;;5069130;28;20032;-83
2022/05/06 12:08:04;;;;;;;1.80;1.00;;;31.90;39.80;;;;;;5040038;28;20469;-83
2022/05/06 12:10:32;;;;;;;2.38;1.25;;;32.20;40.20;;;;;;5056769;28;20032;-85
2022/05/06 12:13:10;;;;;;;2.30;1.10;;;32.40;39.50;;;;;;5057000;28;20481;-86
2022/05/06 12:15:43;;;;;;;3.72;1.10;;;32.60;38.90;;;;;;5058158;28;20028;-84
2022/05/06 12:18:23;;;;;;;2.50;0.82;;;32.60;38.00;;;;;;5056328;28;20028;-84
2022/05/06 12:20:48;;;;;;;2.50;1.13;;;32.80;37.70;;;;;;5074343;28;20029;-85
2022/05/06 12:23:15;;;;;;;1.58;0.93;;;32.90;38.00;;;;;;5057184;28;20043;-85
2022/05/06 12:25:41;;;;;;;1.98;0.90;;;33.10;37.00;;;;;;5074948;28;20028;-86
2022/05/06 12:28:21;;;;;;;1.85;1.00;;;33.10;36.80;;;;;;5074642;28;20032;-84
2022/05/06 12:30:54;;;;;;;2.60;1.40;;;33.10;36.60;;;;;;5056099;28;20027;-86
2022/05/06 12:33:20;;;;;;;5.90;1.33;;;33.20;36.60;;;;;;5057576;28;20123;-85
2022/05/06 12:35:57;;;;;;;4.00;1.38;;;33.20;35.90;;;;;;5057047;28;20554;-85
2022/05/06 12:38:24;;;;;;;2.53;0.90;;;33.20;35.50;;;;;;5076268;28;20036;-82
2022/05/06 12:40:51;;;;;;;2.17;1.17;;;33.10;35.10;;;;;;5057090;28;20025;-84
2022/05/06 12:43:24;;;;;;;2.05;1.17;;;33.10;35.00;;;;;;5056611;28;20095;-84
2022/05/06 12:46:00;;;;;;;2.92;1.58;;;33.20;35.70;;;;;;5075285;28;20063;-83
2022/05/06 12:51:10;;;;;;;2.67;1.63;;;33.60;35.40;;;;;;5074992;28;20096;-85
2022/05/06 12:53:36;;;;;;;2.10;1.00;;;33.80;34.70;;;;;;5050461;28;20061;-86
2022/05/06 12:56:04;;;;;;;2.45;1.23;;;33.70;34.20;;;;;;5054229;28;20037;-84
2022/05/06 12:58:30;;;;;;;4.05;1.90;;;33.70;33.70;;;;;;5053592;28;20033;-86
2022/05/06 13:00:57;;;;;;;5.57;2.83;;;33.70;34.10;;;;;;5020238;28;20029;-83
2022/05/06 13:03:23;;;;;;;4.30;2.83;;;33.90;34.50;;;;;;5037282;28;20025;-85
2022/05/06 13:05:50;;;;;;;3.17;2.03;;;34.00;34.50;;;;;;5056544;28;20078;-86
2022/05/06 13:08:16;;;;;;;4.80;2.03;;;34.00;33.90;;;;;;5055565;28;20128;-84
2022/05/06 13:10:42;;;;;;;6.07;2.50;;;33.90;34.20;;;;;;5036893;28;20036;-86
2022/05/06 13:13:07;;;;;;;3.58;2.17;;;33.80;33.90;;;;;;5036234;28;20037;-83
2022/05/06 13:15:39;;;;;;;4.00;2.60;;;33.80;34.00;;;;;;5048645;28;20036;-87
2022/05/06 13:18:05;;;;;;;3.25;1.67;;;33.70;33.90;;;;;;5055563;28;20032;-87
2022/05/06 13:20:31;;;;;;;5.22;2.05;;;33.80;33.60;;;;;;5039054;28;20032;-85
2022/05/06 13:22:56;;;;;;;4.50;2.22;;;33.80;33.70;;;;;;5022520;28;20116;-84